Time;durP1;ratioP1;P1;durP2;ratioP2;P2;SDS_P1;SDS_P2;PMS_P1;PMS_P2;Temp;Humidity;BMP_temperature;BMP_pressure;BME280_temperature;BME280_humidity;BME280_pressure;Samples;Min_cycle;Max_cycle;Signal;HPM_P1;HPM_P2
2024/02/01 00:00:54;;;;;;;0.00;0.00;;;26.40;46.50;;;;;;5031578;28;20200;-52
2024/02/01 00:03:25;;;;;;;0.00;0.00;;;26.40;46.50;;;;;;5030602;28;20631;-49
2024/02/01 00:05:55;;;;;;;0.00;0.00;;;26.50;46.40;;;;;;5031074;28;20224;-49
2024/02/01 00:08:26;;;;;;;0.00;0.00;;;26.50;46.40;;;;;;5031157;28;20204;-45
2024/02/01 00:10:57;;;;;;;0.00;0.00;;;26.50;46.40;;;;;;5031389;28;20687;-47
2024/02/01 00:13:29;;;;;;;0.00;0.00;;;26.50;46.30;;;;;;5031663;28;20574;-46
2024/02/01 00:16:00;;;;;;;0.00;0.00;;;26.50;46.20;;;;;;5031321;28;20675;-49
2024/02/01 00:18:31;;;;;;;0.00;0.00;;;26.60;46.20;;;;;;5032951;28;20220;-46
2024/02/01 00:21:01;;;;;;;0.00;0.00;;;26.60;46.10;;;;;;5035109;28;20200;-49
2024/02/01 00:23:32;;;;;;;0.00;0.00;;;26.60;46.10;;;;;;5034957;28;20679;-48
2024/02/01 00:26:03;;;;;;;0.00;0.00;;;26.60;46.00;;;;;;5034667;28;20220;-45
2024/02/01 00:28:37;;;;;;;0.00;0.00;;;26.60;46.10;;;;;;5034608;28;20234;-44
2024/02/01 00:31:07;;;;;;;0.00;0.00;;;26.60;46.10;;;;;;5034706;28;20196;-49
2024/02/01 00:33:38;;;;;;;0.00;0.00;;;26.60;46.10;;;;;;5034372;28;20200;-48
2024/02/01 00:36:09;;;;;;;0.00;0.00;;;26.70;46.20;;;;;;5034754;28;20200;-47
2024/02/01 00:38:40;;;;;;;0.00;0.00;;;26.70;46.20;;;;;;5034561;28;20192;-49
2024/02/01 00:41:11;;;;;;;0.00;0.00;;;26.70;46.20;;;;;;5034596;28;20688;-48
2024/02/01 00:46:24;;;;;;;0.00;0.00;;;26.70;46.20;;;;;;5012779;28;20232;-46
2024/02/01 00:48:55;;;;;;;0.00;0.00;;;26.80;46.30;;;;;;5014589;28;20203;-49
2024/02/01 00:51:26;;;;;;;0.00;0.00;;;26.80;46.30;;;;;;5014379;28;20203;-47
2024/02/01 00:53:56;;;;;;;0.00;0.00;;;26.80;46.30;;;;;;5014872;28;20263;-46
2024/02/01 00:56:27;;;;;;;0.00;0.00;;;26.80;46.30;;;;;;5014540;28;20228;-47
2024/02/01 00:59:00;;;;;;;0.00;0.00;;;26.80;46.30;;;;;;5014158;28;20197;-49
2024/02/01 01:01:30;;;;;;;0.00;0.00;;;26.80;46.30;;;;;;5013964;28;20661;-48
2024/02/01 01:04:02;;;;;;;0.00;0.00;;;26.90;46.30;;;;;;5013661;28;20200;-47
2024/02/01 01:06:33;;;;;;;0.00;0.00;;;26.90;46.30;;;;;;5014517;28;20230;-48
2024/02/01 01:09:03;;;;;;;0.00;0.00;;;26.90;46.30;;;;;;5014655;28;20267;-46
2024/02/01 01:11:34;;;;;;;0.00;0.00;;;26.90;46.30;;;;;;5014457;28;20201;-45
2024/02/01 01:14:07;;;;;;;0.00;0.00;;;26.90;46.20;;;;;;5014440;28;20193;-46
2024/02/01 01:16:38;;;;;;;0.00;0.00;;;27.00;46.20;;;;;;5014610;28;20681;-46
2024/02/01 01:19:08;;;;;;;0.00;0.00;;;27.00;46.10;;;;;;5013880;28;20675;-46
2024/02/01 01:21:39;;;;;;;0.00;0.00;;;27.00;46.10;;;;;;5014551;28;20373;-45
2024/02/01 01:24:10;;;;;;;0.00;0.00;;;27.00;46.10;;;;;;5014284;28;20211;-47
2024/02/01 01:26:41;;;;;;;0.00;0.00;;;27.00;46.10;;;;;;5011400;28;20221;-46
2024/02/01 01:29:13;;;;;;;0.00;0.00;;;27.00;46.10;;;;;;4993928;28;20198;-46
2024/02/01 01:31:44;;;;;;;0.00;0.00;;;27.00;46.00;;;;;;4994006;28;20208;-46
2024/02/01 01:34:15;;;;;;;0.00;0.00;;;27.00;46.20;;;;;;4994596;28;20190;-45
2024/02/01 01:36:45;;;;;;;0.00;0.00;;;27.00;46.10;;;;;;4994390;28;20230;-46
2024/02/01 01:39:16;;;;;;;0.00;0.00;;;27.00;46.10;;;;;;4994533;28;20205;-45
2024/02/01 01:41:47;;;;;;;0.00;0.00;;;27.00;46.10;;;;;;5012719;28;20536;-46
2024/02/01 01:44:20;;;;;;;0.00;0.00;;;27.00;46.10;;;;;;5025671;23;20176;-47
2024/02/01 01:46:51;;;;;;;0.00;0.00;;;27.00;46.10;;;;;;5013509;28;20251;-47
2024/02/01 01:49:22;;;;;;;0.00;0.00;;;27.10;46.10;;;;;;5013483;28;20201;-48
2024/02/01 01:51:54;;;;;;;0.00;0.00;;;27.10;46.10;;;;;;5013814;28;20196;-45
2024/02/01 01:54:27;;;;;;;0.00;0.00;;;27.10;46.10;;;;;;5013459;28;20201;-46
2024/02/01 01:56:58;;;;;;;0.00;0.00;;;27.10;46.10;;;;;;5011169;28;20217;-47
2024/02/01 01:59:30;;;;;;;0.00;0.00;;;27.10;46.00;;;;;;5012935;28;20204;-46
2024/02/01 02:02:03;;;;;;;0.00;0.00;;;27.10;46.10;;;;;;5012994;28;20201;-45
2024/02/01 02:04:34;;;;;;;0.00;0.00;;;27.10;46.10;;;;;;5013893;28;20208;-48
2024/02/01 02:07:07;;;;;;;0.00;0.00;;;27.10;46.10;;;;;;5013220;28;20277;-47
2024/02/01 02:09:37;;;;;;;0.00;0.00;;;27.10;46.00;;;;;;5012813;28;20193;-46
2024/02/01 02:12:10;;;;;;;0.00;0.00;;;27.10;46.10;;;;;;5013419;28;20196;-46
2024/02/01 02:14:43;;;;;;;0.00;0.00;;;27.10;46.10;;;;;;5013453;28;20223;-46
2024/02/01 02:17:13;;;;;;;0.00;0.00;;;27.10;46.10;;;;;;5012598;28;20227;-45
2024/02/01 02:19:44;;;;;;;0.00;0.00;;;27.10;46.10;;;;;;5013348;28;20653;-49
2024/02/01 02:22:18;;;;;;;0.00;0.00;;;27.10;46.20;;;;;;5013473;28;20243;-47
2024/02/01 02:24:49;;;;;;;0.00;0.00;;;27.10;46.20;;;;;;5013640;28;20197;-49
2024/02/01 02:27:20;;;;;;;0.00;0.00;;;27.10;46.20;;;;;;5012957;28;20239;-48
2024/02/01 02:29:52;;;;;;;0.00;0.00;;;27.10;46.20;;;;;;5012579;28;20653;-48
2024/02/01 02:32:23;;;;;;;0.00;0.00;;;27.10;46.20;;;;;;5012135;28;20374;-47
2024/02/01 02:34:53;;;;;;;0.00;0.00;;;27.10;46.20;;;;;;5012628;28;20291;-49
2024/02/01 02:37:26;;;;;;;0.00;0.00;;;27.10;46.20;;;;;;5012578;28;20227;-48
2024/02/01 02:39:57;;;;;;;0.00;0.00;;;27.10;46.20;;;;;;5012445;28;20215;-48
2024/02/01 02:42:27;;;;;;;0.00;0.00;;;27.10;46.20;;;;;;5012453;28;20200;-46
2024/02/01 02:44:58;;;;;;;0.00;0.00;;;27.20;46.30;;;;;;5012454;28;20205;-46
2024/02/01 02:47:29;;;;;;;0.00;0.00;;;27.20;46.30;;;;;;5031731;23;20235;-45
2024/02/01 02:49:59;;;;;;;0.00;0.00;;;27.10;46.20;;;;;;5072640;28;20195;-47
2024/02/01 02:52:32;;;;;;;0.00;0.00;;;27.10;46.20;;;;;;5072066;28;20224;-49
2024/02/01 02:55:03;;;;;;;0.00;0.00;;;27.20;46.30;;;;;;5072061;28;20205;-47
2024/02/01 02:57:33;;;;;;;0.00;0.00;;;27.10;46.30;;;;;;5071800;28;20706;-49
2024/02/01 03:00:05;;;;;;;0.00;0.00;;;27.20;46.30;;;;;;5072081;28;20195;-49
2024/02/01 03:02:36;;;;;;;0.00;0.00;;;27.20;46.40;;;;;;5069608;28;20643;-47
2024/02/01 03:05:08;;;;;;;0.00;0.00;;;27.20;46.40;;;;;;5071818;28;20336;-46
2024/02/01 03:07:41;;;;;;;0.00;0.00;;;27.20;46.40;;;;;;5070112;28;20766;-47
2024/02/01 03:10:12;;;;;;;0.00;0.00;;;27.20;46.40;;;;;;5072104;28;20573;-46
2024/02/01 03:12:43;;;;;;;0.00;0.00;;;27.20;46.40;;;;;;5072134;28;20195;-46
2024/02/01 03:15:13;;;;;;;0.00;0.00;;;27.10;46.30;;;;;;5071689;28;20593;-47
2024/02/01 03:17:44;;;;;;;0.00;0.00;;;27.10;46.30;;;;;;5071117;28;20225;-47
2024/02/01 03:20:22;;;;;;;0.00;0.00;;;27.10;46.30;;;;;;5071526;28;20209;-48
2024/02/01 03:22:55;;;;;;;0.00;0.00;;;27.10;46.30;;;;;;5071621;28;20285;-51
2024/02/01 03:25:31;;;;;;;0.00;0.00;;;27.10;46.30;;;;;;5071642;28;20494;-49
2024/02/01 03:28:04;;;;;;;0.00;0.00;;;27.10;46.30;;;;;;5071917;28;20218;-52
2024/02/01 03:30:35;;;;;;;0.00;0.00;;;27.10;46.30;;;;;;5072097;28;20203;-50
2024/02/01 03:33:06;;;;;;;0.00;0.00;;;27.00;46.30;;;;;;5063421;28;20195;-50
2024/02/01 03:35:37;;;;;;;0.00;0.00;;;27.00;46.40;;;;;;5051162;28;20195;-50
2024/02/01 03:38:15;;;;;;;0.00;0.00;;;27.10;46.50;;;;;;5051717;28;20329;-48
2024/02/01 03:40:46;;;;;;;0.00;0.00;;;27.00;47.20;;;;;;5062070;28;20283;-52
2024/02/01 03:43:16;;;;;;;0.00;0.00;;;27.00;46.60;;;;;;5071974;28;20187;-45
2024/02/01 03:45:50;;;;;;;0.00;0.00;;;27.00;46.70;;;;;;5071086;28;20204;-45
2024/02/01 03:48:21;;;;;;;0.00;0.00;;;27.10;46.90;;;;;;5065477;23;20323;-49
2024/02/01 03:50:52;;;;;;;0.00;0.00;;;27.00;46.90;;;;;;5031229;28;20200;-49
2024/02/01 03:53:25;;;;;;;0.00;0.00;;;27.10;47.00;;;;;;5030669;28;20202;-49
2024/02/01 03:55:55;;;;;;;0.00;0.00;;;27.00;46.90;;;;;;5031534;28;20196;-47
2024/02/01 03:58:26;;;;;;;0.00;0.00;;;27.10;47.00;;;;;;5031380;28;20307;-48
2024/02/01 04:01:00;;;;;;;0.00;0.00;;;27.10;47.00;;;;;;5031236;28;20537;-47
2024/02/01 04:03:31;;;;;;;0.00;0.00;;;27.10;47.00;;;;;;5031764;28;20196;-50
2024/02/01 04:06:02;;;;;;;0.00;0.00;;;27.10;47.60;;;;;;5030797;28;20223;-50
2024/02/01 04:08:34;;;;;;;0.00;0.00;;;27.10;47.00;;;;;;5031245;28;20712;-50
2024/02/01 04:11:05;;;;;;;0.00;0.00;;;27.10;46.90;;;;;;5031451;28;20675;-47
2024/02/01 04:13:36;;;;;;;0.00;0.00;;;27.10;46.90;;;;;;5031301;28;20196;-45
2024/02/01 04:16:07;;;;;;;0.00;0.00;;;27.10;46.80;;;;;;5030747;28;20318;-47
2024/02/01 04:18:38;;;;;;;0.00;0.00;;;27.10;46.70;;;;;;5030117;28;20220;-44
2024/02/01 04:21:11;;;;;;;0.00;0.00;;;27.10;46.70;;;;;;5026813;28;20215;-48
2024/02/01 04:23:44;;;;;;;0.00;0.00;;;27.10;46.70;;;;;;5027917;28;20547;-47
2024/02/01 04:26:15;;;;;;;0.00;0.00;;;27.10;46.60;;;;;;5027292;28;20235;-49
2024/02/01 04:28:46;;;;;;;0.00;0.00;;;27.10;46.60;;;;;;5028443;28;20242;-43
2024/02/01 04:31:16;;;;;;;0.00;0.00;;;27.10;46.60;;;;;;5026605;28;20719;-42
2024/02/01 04:33:47;;;;;;;0.00;0.00;;;27.10;46.60;;;;;;5028125;28;20675;-42
2024/02/01 04:36:18;;;;;;;0.00;0.00;;;27.10;46.50;;;;;;5025461;28;20200;-43
2024/02/01 04:38:50;;;;;;;0.00;0.00;;;27.20;46.50;;;;;;5028406;28;20201;-46
2024/02/01 04:41:21;;;;;;;0.00;0.00;;;27.20;47.10;;;;;;5027190;28;20204;-47
2024/02/01 04:43:52;;;;;;;0.00;0.00;;;27.20;46.40;;;;;;5027693;28;20618;-45
2024/02/01 04:46:24;;;;;;;0.00;0.00;;;27.20;46.40;;;;;;5026818;28;20224;-45
2024/02/01 04:48:57;;;;;;;0.00;0.00;;;27.20;46.30;;;;;;5008059;28;20220;-42
2024/02/01 04:51:28;;;;;;;0.00;0.00;;;27.20;46.30;;;;;;5006665;28;20552;-43
2024/02/01 04:54:00;;;;;;;0.00;0.00;;;27.30;46.20;;;;;;5007460;28;20566;-47
2024/02/01 04:56:31;;;;;;;0.00;0.00;;;27.30;46.20;;;;;;5007750;28;20590;-43
2024/02/01 04:59:02;;;;;;;0.00;0.00;;;27.30;46.20;;;;;;5007436;28;20215;-43
2024/02/01 05:01:33;;;;;;;0.00;0.00;;;27.30;46.20;;;;;;5012337;28;20207;-51
2024/02/01 05:04:03;;;;;;;0.00;0.00;;;27.30;46.20;;;;;;5028577;28;20286;-45
2024/02/01 05:06:34;;;;;;;0.00;0.00;;;27.30;46.10;;;;;;5030868;28;20228;-52
2024/02/01 05:09:23;;;;;;;0.00;0.00;;;27.40;46.10;;;;;;5030150;28;20797;-50
2024/02/01 05:11:54;;;;;;;0.00;0.00;;;27.30;46.00;;;;;;5030631;28;20210;-43
2024/02/01 05:14:24;;;;;;;0.00;0.00;;;27.40;46.00;;;;;;5029414;28;20584;-46
2024/02/01 05:16:55;;;;;;;0.00;0.00;;;27.40;46.00;;;;;;5030032;28;20495;-42
2024/02/01 05:19:26;;;;;;;0.00;0.00;;;27.40;46.00;;;;;;5029125;28;20208;-49
2024/02/01 05:21:57;;;;;;;0.00;0.00;;;27.40;46.00;;;;;;5030670;28;20204;-48
2024/02/01 05:24:30;;;;;;;0.00;0.00;;;27.40;45.90;;;;;;5029776;28;20188;-48
2024/02/01 05:27:07;;;;;;;0.00;0.00;;;27.40;45.90;;;;;;5017114;28;20243;-42
2024/02/01 05:29:39;;;;;;;0.00;0.00;;;27.40;45.80;;;;;;5030015;28;20683;-47
2024/02/01 05:32:10;;;;;;;0.00;0.00;;;27.40;45.80;;;;;;5028963;28;20192;-50
2024/02/01 05:34:40;;;;;;;0.00;0.00;;;27.50;45.80;;;;;;5030684;28;20201;-44
2024/02/01 05:37:13;;;;;;;0.00;0.00;;;27.50;45.80;;;;;;5030800;28;20335;-46
2024/02/01 05:39:47;;;;;;;0.00;0.00;;;27.50;45.80;;;;;;5029558;28;20525;-45
2024/02/01 05:42:18;;;;;;;0.00;0.00;;;27.50;45.80;;;;;;5029966;28;20652;-49
2024/02/01 05:44:48;;;;;;;0.00;0.00;;;27.50;45.80;;;;;;5029512;28;20204;-47
2024/02/01 05:47:19;;;;;;;0.00;0.00;;;27.50;45.70;;;;;;5030064;28;20505;-51
2024/02/01 05:49:54;;;;;;;0.00;0.00;;;27.50;45.70;;;;;;5029077;28;20211;-48
2024/02/01 05:52:25;;;;;;;0.00;0.00;;;27.50;45.70;;;;;;5030146;28;20200;-42
2024/02/01 05:54:58;;;;;;;0.00;0.00;;;27.50;45.70;;;;;;5029138;28;20204;-50
2024/02/01 05:57:29;;;;;;;0.00;0.00;;;27.50;45.70;;;;;;5029214;28;20228;-47
2024/02/01 06:00:00;;;;;;;0.00;0.00;;;27.50;45.70;;;;;;5029262;28;20196;-43
2024/02/01 06:02:30;;;;;;;0.00;0.00;;;27.50;45.70;;;;;;5029232;28;20565;-43
2024/02/01 06:05:01;;;;;;;0.00;0.00;;;27.50;45.70;;;;;;5029606;28;20721;-45
2024/02/01 06:07:32;;;;;;;0.00;0.00;;;27.50;45.60;;;;;;5028624;28;20238;-41
2024/02/01 06:10:05;;;;;;;0.00;0.00;;;27.50;45.60;;;;;;5029290;28;20207;-46
2024/02/01 06:12:38;;;;;;;0.00;0.00;;;27.50;45.70;;;;;;5029358;28;20269;-41
2024/02/01 06:15:11;;;;;;;0.00;0.00;;;27.50;45.70;;;;;;5028277;28;20204;-49
2024/02/01 06:17:41;;;;;;;0.00;0.00;;;27.50;45.70;;;;;;5029098;28;20224;-43
2024/02/01 06:20:14;;;;;;;0.00;0.00;;;27.50;45.70;;;;;;5028961;28;20200;-43
2024/02/01 06:22:45;;;;;;;0.00;0.00;;;27.50;45.70;;;;;;5029555;28;20684;-42
2024/02/01 06:25:17;;;;;;;0.00;0.00;;;27.50;45.70;;;;;;5029609;28;20197;-43
2024/02/01 06:27:49;;;;;;;0.00;0.00;;;27.50;45.70;;;;;;5029372;28;20236;-43
2024/02/01 06:30:20;;;;;;;0.00;0.00;;;27.50;45.80;;;;;;5028205;28;20206;-44
2024/02/01 06:32:51;;;;;;;0.00;0.00;;;27.40;45.70;;;;;;5028839;28;20200;-45
2024/02/01 06:35:22;;;;;;;0.00;0.00;;;27.50;45.80;;;;;;5028819;28;20203;-43
2024/02/01 06:38:04;;;;;;;0.00;0.00;;;27.40;45.70;;;;;;5029045;28;20234;-42
2024/02/01 06:40:48;;;;;;;0.00;0.00;;;27.40;45.70;;;;;;5028769;28;20593;-41
2024/02/01 06:43:31;;;;;;;0.00;0.00;;;27.40;45.70;;;;;;5029339;28;20203;-42
2024/02/01 06:46:09;;;;;;;0.00;0.00;;;27.50;45.80;;;;;;5028569;28;20239;-42
2024/02/01 06:48:46;;;;;;;0.00;0.00;;;27.40;45.70;;;;;;5029184;28;20243;-41
2024/02/01 06:51:25;;;;;;;0.00;0.00;;;27.40;45.80;;;;;;5028317;28;20324;-41
2024/02/01 06:54:05;;;;;;;0.00;0.00;;;27.40;45.80;;;;;;5029215;28;20283;-41
2024/02/01 06:56:48;;;;;;;0.00;0.00;;;27.40;45.90;;;;;;5029014;28;20731;-44
2024/02/01 07:02:11;;;;;;;0.00;0.00;;;27.40;46.00;;;;;;5026998;28;20298;-41
2024/02/01 07:04:50;;;;;;;0.00;0.00;;;27.30;45.90;;;;;;5028995;28;20258;-41
2024/02/01 07:07:26;;;;;;;0.00;0.00;;;27.30;46.00;;;;;;5028358;28;20314;-42
2024/02/01 07:09:58;;;;;;;0.00;0.00;;;27.30;46.10;;;;;;5028400;28;20202;-42
2024/02/01 07:12:42;;;;;;;0.00;0.00;;;27.20;46.00;;;;;;5028899;28;20292;-45
2024/02/01 07:15:30;;;;;;;0.00;0.00;;;27.30;46.10;;;;;;5027264;28;20200;-45
2024/02/01 07:18:05;;;;;;;0.00;0.00;;;27.20;46.10;;;;;;5026192;28;20931;-46
2024/02/01 07:20:46;;;;;;;0.00;0.00;;;27.20;46.10;;;;;;5027963;28;20669;-41
2024/02/01 07:26:16;;;;;;;0.00;0.00;;;27.20;46.20;;;;;;5023377;28;20266;-41
2024/02/01 07:59:26;;;;;;;0.00;0.00;;;27.00;46.40;;;;;;5026610;28;20214;-41
2024/02/01 08:02:23;;;;;;;0.00;0.00;;;26.90;46.40;;;;;;5027728;28;20247;-41
2024/02/01 08:07:48;;;;;;;0.00;0.00;;;26.90;46.40;;;;;;5026907;28;20281;-41
2024/02/01 08:10:19;;;;;;;0.00;0.00;;;26.80;46.30;;;;;;5027639;28;20679;-42
2024/02/01 08:12:50;;;;;;;0.00;0.00;;;26.80;46.40;;;;;;5027985;28;20250;-41
2024/02/01 08:15:21;;;;;;;0.00;0.00;;;26.80;46.40;;;;;;5028034;28;20398;-41
2024/02/01 08:17:54;;;;;;;0.00;0.00;;;26.80;46.40;;;;;;5027646;28;20235;-41
2024/02/01 08:20:25;;;;;;;0.00;0.00;;;26.80;46.50;;;;;;5027418;28;20200;-41
2024/02/01 08:22:55;;;;;;;0.00;0.00;;;26.80;46.50;;;;;;5027608;28;20204;-41
2024/02/01 08:25:26;;;;;;;0.00;0.00;;;26.70;46.40;;;;;;5028150;28;20222;-43
2024/02/01 08:27:57;;;;;;;0.00;0.00;;;26.80;46.40;;;;;;5026482;28;20232;-45
2024/02/01 08:30:31;;;;;;;0.00;0.00;;;26.70;46.40;;;;;;5026278;28;20211;-46
2024/02/01 08:33:05;;;;;;;0.00;0.00;;;26.70;46.40;;;;;;5027078;28;20294;-49
2024/02/01 08:35:36;;;;;;;0.00;0.00;;;26.70;46.50;;;;;;5027447;28;20208;-46
2024/02/01 08:38:08;;;;;;;0.00;0.00;;;26.70;46.40;;;;;;5026425;28;20647;-43
2024/02/01 08:40:40;;;;;;;0.10;0.10;;;26.70;46.40;;;;;;5030946;28;20200;-46
2024/02/01 08:43:12;;;;;;;0.00;0.00;;;26.70;46.30;;;;;;5031073;28;20708;-45
2024/02/01 08:45:44;;;;;;;0.00;0.00;;;26.70;46.30;;;;;;5030534;28;20200;-43
2024/02/01 08:48:17;;;;;;;0.00;0.00;;;26.70;46.30;;;;;;5031447;28;20228;-45
2024/02/01 08:50:49;;;;;;;0.00;0.00;;;26.70;46.30;;;;;;5031057;28;20226;-41
2024/02/01 08:53:22;;;;;;;0.00;0.00;;;26.60;46.20;;;;;;5031029;28;20208;-46
2024/02/01 08:55:54;;;;;;;0.00;0.00;;;26.60;46.20;;;;;;5030877;28;20661;-43
2024/02/01 08:58:25;;;;;;;0.00;0.00;;;26.60;46.10;;;;;;5030932;28;20273;-45
2024/02/01 09:00:55;;;;;;;0.00;0.00;;;26.60;46.20;;;;;;5030463;28;20206;-47
2024/02/01 09:03:32;;;;;;;0.00;0.00;;;26.60;46.20;;;;;;5031000;28;20206;-46
2024/02/01 09:06:10;;;;;;;0.00;0.00;;;26.50;46.10;;;;;;5030583;28;20218;-45
2024/02/01 09:08:41;;;;;;;0.00;0.00;;;26.50;46.10;;;;;;5030249;28;20699;-42
2024/02/01 09:11:12;;;;;;;0.00;0.00;;;26.50;46.10;;;;;;5030722;28;20208;-41
2024/02/01 09:13:44;;;;;;;0.00;0.00;;;26.50;46.10;;;;;;5014061;28;20774;-41
2024/02/01 09:16:15;;;;;;;0.00;0.00;;;26.50;46.10;;;;;;5030124;28;20200;-44
2024/02/01 09:18:48;;;;;;;0.00;0.00;;;26.50;46.10;;;;;;5030010;28;20538;-47
2024/02/01 09:21:19;;;;;;;0.00;0.00;;;26.50;46.10;;;;;;5030973;28;20200;-45
2024/02/01 09:23:50;;;;;;;0.00;0.00;;;26.50;46.10;;;;;;5029742;28;20266;-45
2024/02/01 09:26:21;;;;;;;0.00;0.00;;;26.50;46.10;;;;;;5030674;28;20196;-41
2024/02/01 09:28:52;;;;;;;0.00;0.00;;;26.50;46.10;;;;;;5033361;28;20235;-43
2024/02/01 09:31:23;;;;;;;0.00;0.00;;;26.40;46.10;;;;;;5033488;28;20200;-46
2024/02/01 09:33:56;;;;;;;0.00;0.00;;;26.40;46.00;;;;;;5034078;28;20297;-43
2024/02/01 09:36:27;;;;;;;0.00;0.00;;;26.40;46.00;;;;;;5033975;28;20198;-47
2024/02/01 09:38:58;;;;;;;0.00;0.00;;;26.40;46.00;;;;;;5034078;28;20207;-45
2024/02/01 09:41:31;;;;;;;0.00;0.00;;;26.40;45.90;;;;;;5034306;28;20676;-46
2024/02/01 09:44:06;;;;;;;0.00;0.00;;;26.40;46.00;;;;;;5033675;28;20202;-49
2024/02/01 09:46:37;;;;;;;0.00;0.00;;;26.30;45.90;;;;;;5033532;28;20224;-48
2024/02/01 09:49:10;;;;;;;0.00;0.00;;;26.30;45.90;;;;;;5071384;22;20218;-45
2024/02/01 09:51:41;;;;;;;0.00;0.00;;;26.30;45.90;;;;;;5068073;28;20199;-45
2024/02/01 09:54:13;;;;;;;0.00;0.00;;;26.30;45.80;;;;;;5066686;28;20201;-44
2024/02/01 09:56:46;;;;;;;0.00;0.00;;;26.30;45.90;;;;;;5059578;28;20735;-45
2024/02/01 09:59:16;;;;;;;0.00;0.00;;;26.30;45.90;;;;;;5042688;28;20189;-44
2024/02/01 10:01:49;;;;;;;0.00;0.00;;;26.30;45.90;;;;;;5041435;28;21266;-45
2024/02/01 10:04:21;;;;;;;0.00;0.00;;;26.20;45.80;;;;;;5040918;28;20214;-45
2024/02/01 10:06:52;;;;;;;0.00;0.00;;;26.20;45.80;;;;;;5043648;28;20218;-44
2024/02/01 10:09:23;;;;;;;0.00;0.00;;;26.20;45.80;;;;;;5043336;28;20566;-45
2024/02/01 10:11:54;;;;;;;0.00;0.00;;;26.20;45.80;;;;;;5043249;28;20194;-45
2024/02/01 10:14:34;;;;;;;0.00;0.00;;;26.20;45.90;;;;;;5042900;28;20185;-45
2024/02/01 10:17:07;;;;;;;0.00;0.00;;;26.20;45.80;;;;;;5042571;28;20713;-45
2024/02/01 10:19:40;;;;;;;0.00;0.00;;;26.10;45.80;;;;;;5041667;28;20726;-46
2024/02/01 10:22:12;;;;;;;0.00;0.00;;;26.10;45.80;;;;;;5041005;28;20188;-47
2024/02/01 10:24:48;;;;;;;0.00;0.00;;;26.10;45.80;;;;;;5036916;28;20189;-45
2024/02/01 10:27:21;;;;;;;0.03;0.03;;;26.10;45.80;;;;;;5032677;28;20219;-44
2024/02/01 10:29:52;;;;;;;0.00;0.00;;;26.10;45.80;;;;;;5032070;28;20263;-44
2024/02/01 10:32:27;;;;;;;0.00;0.00;;;26.10;45.80;;;;;;5033870;28;20191;-45
2024/02/01 10:35:02;;;;;;;0.00;0.00;;;26.00;45.70;;;;;;5052023;28;20671;-45
2024/02/01 10:37:38;;;;;;;0.00;0.00;;;26.00;45.70;;;;;;5051939;28;20233;-45
2024/02/01 10:40:15;;;;;;;0.00;0.00;;;26.00;45.70;;;;;;5052732;28;20203;-45
2024/02/01 10:42:47;;;;;;;0.00;0.00;;;26.00;45.70;;;;;;5052459;28;20768;-45
2024/02/01 10:45:18;;;;;;;0.00;0.00;;;25.90;45.70;;;;;;5052362;28;20253;-46
2024/02/01 10:47:52;;;;;;;0.00;0.00;;;25.90;45.70;;;;;;5062005;22;20196;-43
2024/02/01 10:50:32;;;;;;;0.00;0.00;;;25.90;45.70;;;;;;5031895;28;20192;-45
2024/02/01 10:53:04;;;;;;;0.00;0.00;;;25.90;45.70;;;;;;5032270;28;20737;-47
2024/02/01 10:55:35;;;;;;;0.00;0.00;;;25.90;46.30;;;;;;5032225;28;20687;-42
2024/02/01 10:58:12;;;;;;;0.00;0.00;;;25.80;45.70;;;;;;5032148;28;20220;-45
2024/02/01 11:00:44;;;;;;;0.00;0.00;;;25.80;45.70;;;;;;5032444;28;20199;-46
2024/02/01 11:03:16;;;;;;;0.00;0.00;;;25.80;45.80;;;;;;5031733;28;20210;-47
2024/02/01 11:05:49;;;;;;;0.00;0.00;;;25.80;45.80;;;;;;5032311;28;20196;-43
2024/02/01 11:08:20;;;;;;;0.00;0.00;;;25.80;45.80;;;;;;5032030;28;20234;-44
2024/02/01 11:11:15;;;;;;;0.00;0.00;;;25.70;45.70;;;;;;5031706;28;20196;-44
2024/02/01 11:13:49;;;;;;;0.00;0.00;;;25.70;45.70;;;;;;5031953;28;20249;-49
2024/02/01 11:16:20;;;;;;;0.00;0.00;;;25.70;45.70;;;;;;5031625;28;20204;-44
2024/02/01 11:18:56;;;;;;;0.00;0.00;;;25.70;45.70;;;;;;5031726;28;20250;-45
2024/02/01 11:21:34;;;;;;;0.00;0.00;;;25.60;45.70;;;;;;5032025;28;20196;-46
2024/02/01 11:24:13;;;;;;;0.00;0.00;;;25.60;45.60;;;;;;5031904;28;20204;-47
2024/02/01 11:26:47;;;;;;;0.00;0.00;;;25.60;45.60;;;;;;5031611;28;20212;-46
2024/02/01 11:29:24;;;;;;;0.00;0.00;;;25.60;45.60;;;;;;5031646;28;20314;-42
2024/02/01 11:31:57;;;;;;;0.00;0.00;;;25.60;45.60;;;;;;5031034;28;20203;-44
2024/02/01 11:34:30;;;;;;;0.00;0.00;;;25.60;45.60;;;;;;5011840;28;20201;-54
2024/02/01 11:37:04;;;;;;;0.00;0.00;;;25.50;45.50;;;;;;5011691;28;20228;-49
2024/02/01 11:39:35;;;;;;;0.00;0.00;;;25.50;45.60;;;;;;5012437;28;20193;-46
2024/02/01 11:42:06;;;;;;;0.00;0.00;;;25.50;45.60;;;;;;5031494;28;20207;-49
2024/02/01 11:44:39;;;;;;;0.00;0.00;;;25.50;45.50;;;;;;5031596;28;20444;-48
2024/02/01 11:47:13;;;;;;;0.00;0.00;;;25.50;45.50;;;;;;5031535;28;20226;-48
2024/02/01 11:49:49;;;;;;;0.03;0.03;;;25.50;45.60;;;;;;5031795;28;20220;-45
2024/02/01 11:52:31;;;;;;;0.00;0.00;;;25.40;45.50;;;;;;5031396;28;20196;-48
2024/02/01 11:55:04;;;;;;;0.00;0.00;;;25.40;45.50;;;;;;5031363;28;20204;-43
2024/02/01 11:57:35;;;;;;;0.00;0.00;;;25.40;45.50;;;;;;5031213;28;20503;-47
2024/02/01 12:00:12;;;;;;;0.00;0.00;;;25.40;45.50;;;;;;5031268;28;20299;-49
2024/02/01 12:02:47;;;;;;;0.00;0.00;;;25.30;45.40;;;;;;5031349;28;20192;-41
2024/02/01 12:05:20;;;;;;;0.00;0.00;;;25.30;45.40;;;;;;5031466;28;20199;-42
2024/02/01 12:07:53;;;;;;;0.00;0.00;;;25.30;45.40;;;;;;5031054;28;20232;-46
2024/02/01 12:10:24;;;;;;;0.00;0.00;;;25.30;45.40;;;;;;5030849;28;20223;-49
2024/02/01 12:12:54;;;;;;;0.05;0.05;;;25.30;45.40;;;;;;5031591;28;20195;-44
2024/02/01 12:15:27;;;;;;;0.00;0.00;;;25.30;45.40;;;;;;5035229;28;20668;-46
2024/02/01 12:17:58;;;;;;;0.00;0.00;;;25.30;45.40;;;;;;5035474;28;20649;-51
2024/02/01 12:20:30;;;;;;;0.00;0.00;;;25.30;45.30;;;;;;5035527;28;20203;-48
2024/02/01 12:23:06;;;;;;;0.00;0.00;;;25.30;45.30;;;;;;5035315;28;20196;-43
2024/02/01 12:25:37;;;;;;;0.00;0.00;;;25.20;45.30;;;;;;5035371;28;20652;-46
2024/02/01 12:28:11;;;;;;;0.00;0.00;;;25.30;45.30;;;;;;5035211;28;20607;-47
2024/02/01 12:30:44;;;;;;;0.00;0.00;;;25.20;45.20;;;;;;5034849;28;20196;-47
2024/02/01 12:33:15;;;;;;;0.00;0.00;;;25.20;45.20;;;;;;5034821;28;20243;-45
2024/02/01 12:35:46;;;;;;;0.00;0.00;;;25.20;45.20;;;;;;5035046;28;20621;-48
2024/02/01 12:38:19;;;;;;;0.00;0.00;;;25.20;45.20;;;;;;5034516;28;20212;-49
2024/02/01 12:40:49;;;;;;;0.00;0.00;;;25.20;45.20;;;;;;5034836;28;20200;-43
2024/02/01 12:43:24;;;;;;;0.00;0.00;;;25.10;45.10;;;;;;5034887;28;20660;-47
2024/02/01 12:45:54;;;;;;;0.00;0.00;;;25.10;45.10;;;;;;5034926;28;20289;-50
2024/02/01 12:48:25;;;;;;;0.00;0.00;;;25.10;45.10;;;;;;5034585;28;20361;-46
2024/02/01 12:50:56;;;;;;;0.00;0.00;;;25.10;45.10;;;;;;5034824;28;20664;-49
2024/02/01 12:53:29;;;;;;;0.00;0.00;;;25.10;45.10;;;;;;5034520;28;20196;-44
2024/02/01 12:55:59;;;;;;;0.00;0.00;;;25.10;45.10;;;;;;5033940;28;20649;-45
2024/02/01 12:58:30;;;;;;;0.00;0.00;;;25.10;45.10;;;;;;5033799;28;20266;-48
2024/02/01 13:01:01;;;;;;;0.00;0.00;;;25.10;45.10;;;;;;5034140;28;20193;-45
2024/02/01 13:03:32;;;;;;;0.00;0.00;;;25.10;45.10;;;;;;5034060;28;20200;-46
2024/02/01 13:06:02;;;;;;;0.00;0.00;;;25.00;45.10;;;;;;5034323;28;20722;-44
2024/02/01 13:08:39;;;;;;;0.00;0.00;;;25.00;45.00;;;;;;5034258;28;20222;-44
2024/02/01 13:11:10;;;;;;;0.00;0.00;;;25.00;44.90;;;;;;5034018;28;20195;-50
2024/02/01 13:13:41;;;;;;;0.00;0.00;;;25.10;45.00;;;;;;5034209;28;20673;-44
2024/02/01 13:16:15;;;;;;;0.00;0.00;;;25.00;44.90;;;;;;5034311;28;20208;-42
2024/02/01 13:18:45;;;;;;;0.00;0.00;;;25.00;44.90;;;;;;5034003;28;20206;-48
2024/02/01 13:21:16;;;;;;;0.00;0.00;;;25.00;44.90;;;;;;5033665;28;20207;-48
2024/02/01 13:23:49;;;;;;;0.00;0.00;;;24.90;44.90;;;;;;5034196;28;20196;-48
2024/02/01 13:26:20;;;;;;;0.00;0.00;;;24.90;44.90;;;;;;5033666;28;20202;-43
2024/02/01 13:28:50;;;;;;;0.00;0.00;;;24.90;44.80;;;;;;5034370;28;20574;-45
2024/02/01 13:31:21;;;;;;;0.00;0.00;;;24.90;44.80;;;;;;5034020;28;20206;-44
2024/02/01 13:33:52;;;;;;;0.00;0.00;;;24.90;44.80;;;;;;5033571;28;20196;-45
2024/02/01 13:36:24;;;;;;;0.00;0.00;;;24.90;44.80;;;;;;5033438;28;20196;-50
2024/02/01 13:38:56;;;;;;;0.00;0.00;;;24.90;44.80;;;;;;5032907;28;20698;-49
2024/02/01 13:41:27;;;;;;;0.00;0.00;;;24.90;44.80;;;;;;5033161;28;20589;-45
2024/02/01 13:43:59;;;;;;;0.10;0.10;;;24.90;44.80;;;;;;5033719;28;20556;-46
2024/02/01 13:46:30;;;;;;;0.00;0.00;;;24.90;44.80;;;;;;5033782;28;20285;-45
2024/02/01 13:49:02;;;;;;;0.00;0.00;;;24.90;44.70;;;;;;5033608;28;20230;-48
2024/02/01 13:51:33;;;;;;;0.00;0.00;;;24.90;44.70;;;;;;5033095;28;20203;-43
2024/02/01 13:54:06;;;;;;;0.00;0.00;;;24.80;44.70;;;;;;5033226;28;20196;-44
2024/02/01 13:56:38;;;;;;;0.00;0.00;;;24.80;44.60;;;;;;5033416;28;20684;-48